createdAt,value
2018-04-14T00:01:57.395Z,11.37
2018-04-14T00:04:25.407Z,22.70
2018-04-14T00:06:52.858Z,18.07
2018-04-14T00:09:20.295Z,24.33
2018-04-14T00:11:47.740Z,17.07
2018-04-14T00:14:15.206Z,17.17
2018-04-14T00:16:42.653Z,15.50
2018-04-14T00:19:10.109Z,19.47
2018-04-14T00:21:37.562Z,18.00
2018-04-14T00:24:04.992Z,15.53
2018-04-14T00:26:33.423Z,24.08
2018-04-14T00:29:00.859Z,13.63
2018-04-14T00:31:28.318Z,26.70
2018-04-14T00:33:55.756Z,22.83
2018-04-14T00:36:23.962Z,15.53
2018-04-14T00:38:51.402Z,18.55
2018-04-14T00:41:18.840Z,16.10
2018-04-14T00:43:47.030Z,20.23
2018-04-14T00:46:14.459Z,23.03
2018-04-14T00:48:42.664Z,23.23
2018-04-14T00:51:10.099Z,15.67
2018-04-14T00:53:47.285Z,16.00
2018-04-14T00:56:15.474Z,19.03
2018-04-14T00:58:50.711Z,14.73
2018-04-14T01:01:18.915Z,15.50
2018-04-14T01:03:46.375Z,13.57
2018-04-14T01:06:13.824Z,15.20
2018-04-14T01:08:41.270Z,21.23
2018-04-14T01:11:08.719Z,12.70
2018-04-14T01:13:36.164Z,12.93
2018-04-14T01:16:04.382Z,17.20
2018-04-14T01:18:31.821Z,13.67
2018-04-14T01:20:59.264Z,15.63
2018-04-14T01:23:27.464Z,12.40
2018-04-14T01:25:54.908Z,18.33
2018-04-14T01:28:22.351Z,18.57
2018-04-14T01:30:49.779Z,16.20
2018-04-14T01:33:17.232Z,12.73
2018-04-14T01:35:46.175Z,13.50
2018-04-14T01:38:13.617Z,16.67
2018-04-14T01:40:41.061Z,12.37
2018-04-14T01:43:09.271Z,12.60
2018-04-14T01:45:36.704Z,12.83
2018-04-14T01:48:04.163Z,14.20
2018-04-14T01:50:32.348Z,15.33
2018-04-14T01:52:59.939Z,15.50
2018-04-14T01:55:27.394Z,14.60
2018-04-14T01:57:54.835Z,15.10
2018-04-14T02:00:22.264Z,17.00
2018-04-14T02:02:49.731Z,13.50
2018-04-14T02:05:18.641Z,13.40
2018-04-14T02:07:46.064Z,15.70
2018-04-14T02:10:14.278Z,15.25
2018-04-14T02:12:41.718Z,13.87
2018-04-14T02:15:09.162Z,15.60
2018-04-14T02:17:36.592Z,17.77
2018-04-14T02:20:04.817Z,14.30
2018-04-14T02:22:32.260Z,14.90
2018-04-14T02:24:59.706Z,14.40
2018-04-14T02:27:28.201Z,15.70
2018-04-14T02:29:55.649Z,15.35
2018-04-14T02:32:23.085Z,14.53
2018-04-14T02:34:51.303Z,12.77
2018-04-14T02:37:18.743Z,16.40
2018-04-14T02:39:46.191Z,17.20
2018-04-14T02:42:13.624Z,18.00
2018-04-14T02:44:41.061Z,17.33
2018-04-14T02:47:08.509Z,19.10
2018-04-14T02:49:37.298Z,17.57
2018-04-14T02:52:04.734Z,16.13
2018-04-14T02:54:32.195Z,16.20
2018-04-14T02:56:59.637Z,16.70
2018-04-14T02:59:27.090Z,18.27
2018-04-14T03:01:54.584Z,16.63
2018-04-14T03:04:22.048Z,18.70
2018-04-14T03:06:49.487Z,18.23
2018-04-14T03:09:16.927Z,14.43
2018-04-14T03:11:45.221Z,19.13
2018-04-14T03:14:12.653Z,19.80
2018-04-14T03:16:40.083Z,16.43
2018-04-14T03:19:08.288Z,15.53
2018-04-14T03:21:35.730Z,15.10
2018-04-14T03:24:03.952Z,15.20
2018-04-14T03:26:31.397Z,12.47
2018-04-14T03:28:58.828Z,11.03
2018-04-14T03:31:26.279Z,13.47
2018-04-14T03:33:55.292Z,11.87
2018-04-14T03:36:22.736Z,14.97
2018-04-14T03:38:50.173Z,12.70
2018-04-14T03:41:18.388Z,12.30
2018-04-14T03:43:45.825Z,11.90
2018-04-14T03:46:13.267Z,11.83
2018-04-14T03:48:41.465Z,11.50
2018-04-14T03:51:08.921Z,11.10
2018-04-14T03:53:36.359Z,10.03
2018-04-14T03:56:04.563Z,11.10
2018-04-14T03:58:32.008Z,10.37
2018-04-14T04:00:59.436Z,8.93
2018-04-14T04:03:27.645Z,10.20
2018-04-14T04:05:55.097Z,8.73
2018-04-14T04:08:22.530Z,10.85
2018-04-14T04:10:50.749Z,11.50
2018-04-14T04:13:18.196Z,11.50
2018-04-14T04:15:46.414Z,12.80
2018-04-14T04:18:14.616Z,10.93
2018-04-14T04:21:02.788Z,9.30
2018-04-14T04:23:42.244Z,10.53
2018-04-14T04:26:09.684Z,10.03
2018-04-14T04:28:37.128Z,14.17
2018-04-14T04:31:04.560Z,15.57
2018-04-14T04:33:32.771Z,14.00
2018-04-14T04:36:00.215Z,12.53
2018-04-14T04:38:28.477Z,18.87
2018-04-14T04:40:55.921Z,10.30
2018-04-14T04:43:24.125Z,13.37
2018-04-14T04:45:51.578Z,14.40
2018-04-14T04:48:19.019Z,10.40
2018-04-14T04:50:47.232Z,10.90
2018-04-14T04:53:14.671Z,10.10
2018-04-14T04:55:42.101Z,10.23
2018-04-14T04:58:10.302Z,9.70
2018-04-14T05:00:37.735Z,11.07
2018-04-14T05:03:05.939Z,11.43
2018-04-14T05:05:33.384Z,13.30
2018-04-14T05:08:00.819Z,12.30
2018-04-14T05:10:29.013Z,11.53
2018-04-14T05:12:56.473Z,11.55
2018-04-14T05:15:23.907Z,9.33
2018-04-14T05:17:52.120Z,8.43
2018-04-14T05:20:19.559Z,8.97
2018-04-14T05:22:47.760Z,8.80
2018-04-14T05:25:15.212Z,7.30
2018-04-14T05:27:42.647Z,7.77
2018-04-14T05:30:10.084Z,7.00
2018-04-14T05:32:38.299Z,7.20
2018-04-14T05:35:05.956Z,7.33
2018-04-14T05:37:33.454Z,8.73
2018-04-14T05:40:00.865Z,8.60
2018-04-14T05:42:28.297Z,8.27
2018-04-14T05:44:56.514Z,9.60
2018-04-14T05:47:23.961Z,11.10
2018-04-14T05:49:51.388Z,10.43
2018-04-14T05:52:19.622Z,10.10
2018-04-14T05:54:47.051Z,9.60
2018-04-14T05:57:14.498Z,11.40
2018-04-14T05:59:41.932Z,12.40
2018-04-14T06:02:10.142Z,15.13
2018-04-14T06:04:37.575Z,12.60
2018-04-14T06:07:06.265Z,13.10
2018-04-14T06:09:33.723Z,11.23
2018-04-14T06:12:01.154Z,12.10
2018-04-14T06:14:29.376Z,12.80
2018-04-14T06:16:56.855Z,13.07
2018-04-14T06:19:24.290Z,13.80
2018-04-14T06:21:51.729Z,18.20
2018-04-14T06:24:19.947Z,16.10
2018-04-14T06:26:47.392Z,13.23
2018-04-14T06:29:14.848Z,13.73
2018-04-14T06:31:42.295Z,15.27
2018-04-14T06:34:09.750Z,22.93
2018-04-14T06:36:37.200Z,11.53
2018-04-14T06:39:05.465Z,13.83
2018-04-14T06:41:32.903Z,12.90
2018-04-14T06:44:01.177Z,12.00
2018-04-14T06:46:28.578Z,5.00
2018-04-14T06:48:55.999Z,4.80
2018-04-14T06:51:23.461Z,4.43
2018-04-14T06:53:51.652Z,3.50
2018-04-14T06:56:19.084Z,4.13
2018-04-14T06:58:47.728Z,4.23
2018-04-14T07:01:15.958Z,3.70
2018-04-14T07:03:43.396Z,3.80
2018-04-14T07:06:11.622Z,3.20
2018-04-14T07:08:39.072Z,3.47
2018-04-14T07:11:06.544Z,2.87
2018-04-14T07:13:33.983Z,3.27
2018-04-14T07:16:01.416Z,3.00
2018-04-14T07:18:28.859Z,3.73
2018-04-14T07:20:57.069Z,5.40
2018-04-14T07:23:24.504Z,3.37
2018-04-14T07:25:51.949Z,3.50
2018-04-14T07:28:20.159Z,3.85
2018-04-14T07:30:47.614Z,4.37
2018-04-14T07:33:15.040Z,4.97
2018-04-14T07:35:43.247Z,3.40
2018-04-14T07:38:10.676Z,3.27
2018-04-14T07:40:38.132Z,3.40
2018-04-14T07:43:05.572Z,3.50
2018-04-14T07:45:33.817Z,3.10
2018-04-14T07:48:01.240Z,3.20
2018-04-14T07:50:28.683Z,6.53
2018-04-14T07:52:56.137Z,4.17
2018-04-14T07:55:24.328Z,4.20
2018-04-14T07:57:51.768Z,4.77
2018-04-14T08:00:19.225Z,3.27
2018-04-14T08:02:46.664Z,3.27
2018-04-14T08:05:14.868Z,3.17
2018-04-14T08:07:42.308Z,3.80
2018-04-14T08:10:10.562Z,5.07
2018-04-14T08:12:37.991Z,4.50
2018-04-14T08:15:05.436Z,4.17
2018-04-14T08:17:32.884Z,4.23
2018-04-14T08:20:00.371Z,4.77
2018-04-14T08:22:27.812Z,4.43
2018-04-14T08:24:55.261Z,5.37
2018-04-14T08:27:22.703Z,3.90
2018-04-14T08:29:50.153Z,4.77
2018-04-14T08:32:17.584Z,3.97
2018-04-14T08:34:45.803Z,3.27
2018-04-14T08:37:13.297Z,4.30
2018-04-14T08:39:40.680Z,6.47
2018-04-14T08:42:08.908Z,3.42
2018-04-14T08:44:36.380Z,3.30
2018-04-14T08:47:03.870Z,4.00
2018-04-14T08:49:32.064Z,3.97
2018-04-14T08:51:59.511Z,3.77
2018-04-14T08:54:27.724Z,3.80
2018-04-14T08:56:55.181Z,3.07
2018-04-14T08:59:22.619Z,3.80
2018-04-14T09:01:50.067Z,5.23
2018-04-14T09:04:17.491Z,3.03
2018-04-14T09:06:45.728Z,3.97
2018-04-14T09:09:13.167Z,4.57
2018-04-14T09:11:40.613Z,2.90
2018-04-14T09:14:08.051Z,2.23
2018-04-14T09:16:36.265Z,2.15
2018-04-14T09:19:03.721Z,2.13
2018-04-14T09:21:31.175Z,3.43
2018-04-14T09:23:58.619Z,2.50
2018-04-14T09:26:26.078Z,1.80
2018-04-14T09:28:53.513Z,1.97
2018-04-14T09:31:21.720Z,2.63
2018-04-14T09:33:49.161Z,1.80
2018-04-14T09:36:16.837Z,2.07
2018-04-14T09:38:45.141Z,2.77
2018-04-14T09:41:12.663Z,4.90
2018-04-14T09:43:40.100Z,2.20
2018-04-14T09:46:08.305Z,4.23
2018-04-14T09:48:35.752Z,3.00
2018-04-14T09:51:03.196Z,2.03
2018-04-14T09:53:30.643Z,3.53
2018-04-14T09:55:58.848Z,2.03
2018-04-14T09:58:26.312Z,4.30
2018-04-14T10:00:59.659Z,3.85
2018-04-14T10:03:27.079Z,2.43
2018-04-14T10:05:54.521Z,1.60
2018-04-14T10:08:21.981Z,1.90
2018-04-14T10:10:49.431Z,2.15
2018-04-14T10:13:16.869Z,4.20
2018-04-14T10:15:44.316Z,1.80
2018-04-14T10:18:12.513Z,1.60
2018-04-14T10:20:39.953Z,1.63
2018-04-14T10:23:07.416Z,1.90
2018-04-14T10:25:34.989Z,1.77
2018-04-14T10:28:02.433Z,2.40
2018-04-14T10:30:29.876Z,1.57
2018-04-14T10:32:58.101Z,1.20
2018-04-14T10:35:25.540Z,1.30
2018-04-14T10:37:53.050Z,1.20
2018-04-14T10:40:20.417Z,1.37
2018-04-14T10:42:48.650Z,1.40
2018-04-14T10:45:16.105Z,0.90
2018-04-14T10:47:43.552Z,1.17
2018-04-14T10:50:11.026Z,1.67
2018-04-14T10:52:38.473Z,1.50
2018-04-14T10:55:05.913Z,1.50
2018-04-14T10:57:33.372Z,2.00
2018-04-14T11:00:00.815Z,1.40
2018-04-14T11:02:28.264Z,1.50
2018-04-14T11:04:55.705Z,2.00
2018-04-14T11:07:23.920Z,1.98
2018-04-14T11:09:51.400Z,2.50
2018-04-14T11:12:18.800Z,1.40
2018-04-14T11:14:47.013Z,1.63
2018-04-14T11:17:14.428Z,3.17
2018-04-14T11:19:42.688Z,1.47
2018-04-14T11:22:10.113Z,1.50
2018-04-14T11:24:37.572Z,1.50
2018-04-14T11:27:05.019Z,2.03
2018-04-14T11:29:32.449Z,1.80
2018-04-14T11:31:59.881Z,1.70
2018-04-14T11:34:27.333Z,6.53
2018-04-14T11:36:54.771Z,2.47
2018-04-14T11:39:22.215Z,1.70
2018-04-14T11:41:49.651Z,1.93
2018-04-14T11:44:17.132Z,3.27
2018-04-14T11:46:44.583Z,1.60
2018-04-14T11:49:12.038Z,1.40
2018-04-14T11:51:39.470Z,1.33
2018-04-14T11:54:06.916Z,1.07
2018-04-14T11:56:35.131Z,1.67
2018-04-14T11:59:02.589Z,1.07
2018-04-14T12:01:30.025Z,1.20
2018-04-14T12:03:57.468Z,1.37
2018-04-14T12:06:24.904Z,2.20
2018-04-14T12:08:53.124Z,1.70
2018-04-14T12:11:20.563Z,1.80
2018-04-14T12:13:48.011Z,1.80
2018-04-14T12:16:15.441Z,2.17
2018-04-14T12:18:42.881Z,3.30
2018-04-14T12:21:10.317Z,4.50
2018-04-14T12:23:37.764Z,2.80
2018-04-14T12:26:05.217Z,2.70
2018-04-14T12:28:32.667Z,2.07
2018-04-14T12:31:00.116Z,1.40
2018-04-14T12:33:27.540Z,1.50
2018-04-14T12:35:55.748Z,1.90
2018-04-14T12:38:23.240Z,1.77
2018-04-14T12:40:50.692Z,2.10
2018-04-14T12:43:18.136Z,2.00
2018-04-14T12:45:45.589Z,1.60
2018-04-14T12:48:13.028Z,1.58
2018-04-14T12:50:40.467Z,3.70
2018-04-14T12:53:08.901Z,1.63
2018-04-14T12:55:36.358Z,1.63
2018-04-14T12:58:03.797Z,1.43
2018-04-14T13:00:31.224Z,1.73
2018-04-14T13:02:59.433Z,1.60
2018-04-14T13:05:27.841Z,2.33
2018-04-14T13:07:55.293Z,1.80
2018-04-14T13:10:22.719Z,3.77
2018-04-14T13:12:50.167Z,1.50
2018-04-14T13:15:17.615Z,1.40
2018-04-14T13:17:45.053Z,1.70
2018-04-14T13:20:13.261Z,1.40
2018-04-14T13:22:40.708Z,2.17
2018-04-14T13:25:08.201Z,1.67
2018-04-14T13:27:35.724Z,1.73
2018-04-14T13:30:03.163Z,2.07
2018-04-14T13:32:31.384Z,2.10
2018-04-14T13:34:58.841Z,2.37
2018-04-14T13:37:26.304Z,1.57
2018-04-14T13:39:53.754Z,1.40
2018-04-14T13:42:21.187Z,1.83
2018-04-14T13:44:48.626Z,1.67
2018-04-14T13:47:16.851Z,2.17
2018-04-14T13:49:44.270Z,1.90
2018-04-14T13:52:11.711Z,1.40
2018-04-14T13:54:40.840Z,2.90
2018-04-14T13:57:08.285Z,1.60
2018-04-14T13:59:35.716Z,2.87
2018-04-14T14:02:03.935Z,1.30
2018-04-14T14:04:31.379Z,1.77
2018-04-14T14:06:58.815Z,1.90
2018-04-14T14:09:27.028Z,1.70
2018-04-14T14:11:54.468Z,1.50
2018-04-14T14:14:21.921Z,3.00
2018-04-14T14:16:49.374Z,2.47
2018-04-14T14:19:16.866Z,2.20
2018-04-14T14:21:44.304Z,2.57
2018-04-14T14:24:11.744Z,2.70
2018-04-14T14:26:39.951Z,1.80
2018-04-14T14:29:07.381Z,2.70
2018-04-14T14:31:34.839Z,2.10
2018-04-14T14:34:02.270Z,1.77
2018-04-14T14:36:30.485Z,2.07
2018-04-14T14:38:57.924Z,2.03
2018-04-14T14:41:25.365Z,2.43
2018-04-14T14:43:53.591Z,1.90
2018-04-14T14:46:21.037Z,1.60
2018-04-14T14:48:48.485Z,1.83
2018-04-14T14:51:15.923Z,1.65
2018-04-14T14:53:43.364Z,2.17
2018-04-14T14:56:11.572Z,1.60
2018-04-14T14:58:39.018Z,1.60
2018-04-14T15:01:06.450Z,1.50
2018-04-14T15:03:34.667Z,1.67
2018-04-14T15:06:02.102Z,1.43
2018-04-14T15:08:29.557Z,1.60
2018-04-14T15:10:57.009Z,1.77
2018-04-14T15:13:25.212Z,1.48
2018-04-14T15:15:52.670Z,1.40
2018-04-14T15:18:20.130Z,1.40
2018-04-14T15:20:47.557Z,1.50
2018-04-14T15:23:15.013Z,1.20
2018-04-14T15:25:42.471Z,1.80
2018-04-14T15:28:10.691Z,3.30
2018-04-14T15:30:38.135Z,1.50
2018-04-14T15:33:05.584Z,1.40
2018-04-14T15:35:33.021Z,2.33
2018-04-14T15:38:00.465Z,2.17
2018-04-14T15:40:28.685Z,2.13
2018-04-14T15:42:56.120Z,1.40
2018-04-14T15:45:23.555Z,1.30
2018-04-14T15:47:51.763Z,4.65
2018-04-14T15:50:19.198Z,1.73
2018-04-14T15:52:46.643Z,1.70
2018-04-14T15:55:14.949Z,1.30
2018-04-14T15:57:42.370Z,2.13
2018-04-14T16:00:10.598Z,1.50
2018-04-14T16:02:38.036Z,2.33
2018-04-14T16:05:05.489Z,2.33
2018-04-14T16:07:32.911Z,3.03
2018-04-14T16:10:01.125Z,2.43
2018-04-14T16:12:28.579Z,1.77
2018-04-14T16:14:56.031Z,2.30
2018-04-14T16:17:23.517Z,1.97
2018-04-14T16:19:50.962Z,6.60
2018-04-14T16:22:18.393Z,1.30
2018-04-14T16:24:45.857Z,3.57
2018-04-14T16:27:13.294Z,1.50
2018-04-14T16:29:41.501Z,1.90
2018-04-14T16:32:08.927Z,1.70
2018-04-14T16:34:37.133Z,1.70
2018-04-14T16:37:04.576Z,2.10
2018-04-14T16:39:32.008Z,2.20
2018-04-14T16:42:00.216Z,3.43
2018-04-14T16:44:27.669Z,2.97
2018-04-14T16:46:55.119Z,2.93
2018-04-14T16:49:22.575Z,2.73
2018-04-14T16:51:50.772Z,5.30
2018-04-14T16:54:18.240Z,3.60
2018-04-14T16:56:45.689Z,4.17
2018-04-14T16:59:13.896Z,3.03
2018-04-14T17:01:41.341Z,3.47
2018-04-14T17:04:08.770Z,5.67
2018-04-14T17:06:36.232Z,3.07
2018-04-14T17:09:03.894Z,3.17
2018-04-14T17:11:31.371Z,3.03
2018-04-14T17:13:58.850Z,2.50
2018-04-14T17:16:26.334Z,3.50
2018-04-14T17:18:54.646Z,2.77
2018-04-14T17:21:22.048Z,2.67
2018-04-14T17:23:49.510Z,1.90
2018-04-14T17:26:16.970Z,2.93
2018-04-14T17:28:44.430Z,3.15
2018-04-14T17:31:12.676Z,3.83
2018-04-14T17:33:40.150Z,2.67
2018-04-14T17:36:07.583Z,2.33
2018-04-14T17:38:35.049Z,2.93
2018-04-14T17:41:02.494Z,2.90
2018-04-14T17:43:29.963Z,3.77
2018-04-14T17:45:57.410Z,2.53
2018-04-14T17:48:24.875Z,1.93
2018-04-14T17:50:52.346Z,2.12
2018-04-14T17:53:19.795Z,2.27
2018-04-14T17:55:47.255Z,2.50
2018-04-14T17:58:14.716Z,2.07
2018-04-14T18:00:42.183Z,2.70
2018-04-14T18:03:10.395Z,2.13
2018-04-14T18:05:37.860Z,2.73
2018-04-14T18:08:05.311Z,5.57
2018-04-14T18:10:32.774Z,3.60
2018-04-14T18:13:00.252Z,8.83
2018-04-14T18:15:27.721Z,13.53
2018-04-14T18:17:55.179Z,12.00
2018-04-14T18:20:23.444Z,15.93
2018-04-14T18:22:50.901Z,17.47
2018-04-14T18:25:18.366Z,9.53
2018-04-14T18:27:45.838Z,7.43
2018-04-14T18:30:13.304Z,6.30
2018-04-14T18:32:41.267Z,7.60
2018-04-14T18:35:08.746Z,4.85
2018-04-14T18:37:36.989Z,4.53
2018-04-14T18:40:04.524Z,5.00
2018-04-14T18:42:31.973Z,8.57
2018-04-14T18:44:59.459Z,6.83
2018-04-14T18:47:26.920Z,3.87
2018-04-14T18:49:54.370Z,4.97
2018-04-14T18:52:21.833Z,3.53
2018-04-14T18:54:49.275Z,4.00
2018-04-14T18:57:16.736Z,4.03
2018-04-14T18:59:44.216Z,4.90
2018-04-14T19:02:11.690Z,3.83
2018-04-14T19:04:39.913Z,3.80
2018-04-14T19:07:07.411Z,3.87
2018-04-14T19:09:34.857Z,4.60
2018-04-14T19:12:02.328Z,4.07
2018-04-14T19:14:29.798Z,4.87
2018-04-14T19:16:58.022Z,8.40
2018-04-14T19:19:25.502Z,6.07
2018-04-14T19:21:52.940Z,4.30
2018-04-14T19:24:20.406Z,4.43
2018-04-14T19:26:47.885Z,4.43
2018-04-14T19:29:15.350Z,4.50
2018-04-14T19:31:42.798Z,4.78
2018-04-14T19:34:10.305Z,4.13
2018-04-14T19:36:38.526Z,4.27
2018-04-14T19:39:05.985Z,6.50
2018-04-14T19:41:33.448Z,4.43
2018-04-14T19:44:00.893Z,5.83
2018-04-14T19:46:28.340Z,4.83
2018-04-14T19:48:55.807Z,6.30
2018-04-14T19:51:23.261Z,6.00
2018-04-14T19:53:50.731Z,7.37
2018-04-14T19:56:18.199Z,6.40
2018-04-14T19:58:45.652Z,4.70
2018-04-14T20:14:13.609Z,4.83
2018-04-14T20:16:41.060Z,5.80
2018-04-14T20:19:08.519Z,5.30
2018-04-14T20:21:35.970Z,5.53
2018-04-14T20:24:03.451Z,5.82
2018-04-14T20:26:30.907Z,8.67
2018-04-14T20:28:58.360Z,9.47
2018-04-14T20:31:25.818Z,9.40
2018-04-14T20:33:53.326Z,7.00
2018-04-14T20:36:20.787Z,9.40
2018-04-14T20:38:48.256Z,7.70
2018-04-14T20:41:15.768Z,5.03
2018-04-14T20:43:43.993Z,4.23
2018-04-14T20:46:11.439Z,4.55
2018-04-14T20:48:38.901Z,4.40
2018-04-14T20:51:06.370Z,7.63
2018-04-14T20:53:33.810Z,5.10
2018-04-14T20:56:01.267Z,8.20
2018-04-14T20:58:28.702Z,6.40
2018-04-14T21:00:56.180Z,8.10
2018-04-14T21:03:23.646Z,6.63
2018-04-14T21:05:51.101Z,6.13
2018-04-14T21:08:18.555Z,6.30
2018-04-14T21:10:46.023Z,5.07
2018-04-14T21:13:13.472Z,4.93
2018-04-14T21:15:40.931Z,5.80
2018-04-14T21:18:08.380Z,5.57
2018-04-14T21:20:35.985Z,4.57
2018-04-14T21:23:03.426Z,6.00
2018-04-14T21:25:30.890Z,6.30
2018-04-14T21:27:58.323Z,4.83
2018-04-14T21:30:25.795Z,9.10
2018-04-14T21:32:53.279Z,5.33
2018-04-14T21:35:20.959Z,4.90
2018-04-14T21:37:48.401Z,5.33
2018-04-14T21:40:15.864Z,4.90
2018-04-14T21:42:44.096Z,5.47
2018-04-14T21:45:11.548Z,4.70
2018-04-14T21:47:38.990Z,3.83
2018-04-14T21:50:06.440Z,7.00
2018-04-14T21:52:34.044Z,4.20
2018-04-14T21:55:01.500Z,7.47
2018-04-14T21:57:28.941Z,6.67
2018-04-14T21:59:56.388Z,6.80
2018-04-14T22:02:23.829Z,6.77
2018-04-14T22:04:51.299Z,6.53
2018-04-14T22:07:19.483Z,4.07
2018-04-14T22:09:46.939Z,5.00
2018-04-14T22:12:14.388Z,5.20
2018-04-14T22:14:41.816Z,4.77
2018-04-14T22:17:10.045Z,5.20
2018-04-14T22:19:37.473Z,5.93
2018-04-14T22:22:04.912Z,4.80
2018-04-14T22:24:32.344Z,4.00
2018-04-14T22:27:00.568Z,6.40
2018-04-14T22:29:28.017Z,3.93
2018-04-14T22:31:55.455Z,4.60
2018-04-14T22:34:23.664Z,4.47
2018-04-14T22:36:51.137Z,3.80
2018-04-14T22:39:18.581Z,6.57
2018-04-14T22:41:46.048Z,7.07
2018-04-14T22:44:13.484Z,4.63
2018-04-14T22:46:40.924Z,5.73
2018-04-14T22:49:08.361Z,5.90
2018-04-14T22:51:36.588Z,5.57
2018-04-14T22:54:04.020Z,5.97
2018-04-14T22:56:31.478Z,5.73
2018-04-14T22:58:58.913Z,6.33
2018-04-14T23:01:27.136Z,6.40
2018-04-14T23:03:54.587Z,4.57
2018-04-14T23:06:22.049Z,5.40
2018-04-14T23:08:49.475Z,5.27
2018-04-14T23:11:16.934Z,5.90
2018-04-14T23:13:44.404Z,5.27
2018-04-14T23:16:12.576Z,4.73
2018-04-14T23:18:40.010Z,5.53
2018-04-14T23:21:08.208Z,5.33
2018-04-14T23:23:35.653Z,5.97
2018-04-14T23:26:03.088Z,5.57
2018-04-14T23:28:31.304Z,4.97
2018-04-14T23:30:58.739Z,5.40
2018-04-14T23:33:26.229Z,5.10
2018-04-14T23:35:53.651Z,6.13
2018-04-14T23:38:21.083Z,6.20
2018-04-14T23:40:49.279Z,5.43
2018-04-14T23:43:16.728Z,5.60
2018-04-14T23:45:44.924Z,5.53
2018-04-14T23:48:12.381Z,7.13
2018-04-14T23:50:39.841Z,6.50
2018-04-14T23:53:07.304Z,7.43
2018-04-14T23:55:34.740Z,7.13
2018-04-14T23:58:02.223Z,14.67
